Weather observations for the past three days for
Grantley Adams International Airport
Imperial (Metric)
Date Time (ast) Wind (mph) Vis. (mi.) Weather Sky Cond. Temperature (ºF) Relative Humidity Wind Chill (°F) Heat Index (°F) Pressure Precipitation (in)
Air Dwpt 6 hour altimeter (in) sea level (mb) 1 hr 3 hr 6 hr
Max. Min.
31 00:00 E 20 0.00 Partly Cloudy SCT018 SCT045 82.4 77 84% 91 0 0.0
30 23:00 E 15 0.00 Partly Cloudy SCT018 SCT045 82.4 78.8 89% 92 0 0.0
30 22:00 E 14 0.00 Partly Cloudy SCT018 SCT045 82.4 77 84% 91 0 0.0
30 21:00 E 14 0.00 Partly Cloudy FEW018 SCT045 82.4 78.8 89% 92 0 0.0
30 20:00 E 12 0.00 Partly Cloudy FEW018 SCT045 82.4 77 84% 91 0 0.0
30 19:00 E 13 0.00 Partly Cloudy FEW016 SCT045 82.4 77 84% 91 0 0.0
30 18:00 E 10 0.00 Partly Cloudy FEW010CB SCT045 82.4 77 84% 91 0 0.0
30 17:00 E 18 0.00 Showers in Vicinity FEW010CB SCT016 84.2 78.8 84% 96 0 0.0
30 16:00 E 14 0.00 A Few Clouds FEW010CB 86 78.8 79% 99 0 0.0
30 15:00 SE 15 0.00 A Few Clouds FEW010CB 86 78.8 79% 99 0 0.0
30 14:00 E 21 0.00 A Few Clouds and Breezy FEW010CB 86 78.8 79% 99 0 0.0
30 13:00 SE 16 0.00 Showers in Vicinity SCT016 87.8 80.6 79% 105 0 0.0
30 12:00 S 13 0.00 Showers in Vicinity FEW010CB 86 80.6 84% 102 0 0.0
30 11:00 SE 18 0.00 Showers in Vicinity FEW010CB SCT016 86 78.8 79% 99 0 0.0
30 10:00 SE 17 0.00 Partly Cloudy SCT018 86 80.6 84% 102 0 0.0
30 09:00 SE 15 0.00 Partly Cloudy SCT018 86 78.8 79% 99 0 0.0
30 08:00 SE 14 0.00 A Few Clouds FEW016 84.2 78.8 84% 96 0 0.0
30 07:00 SE 14 0.00 Mostly Cloudy FEW016 BKN036 82.4 78.8 89% 92 0 0.0
30 06:00 SE 15 0.00 Showers in Vicinity FEW012CB SCT016 BKN036 82.4 78.8 89% 92 0 0.0
30 05:00 SE 13 0.00 Showers in Vicinity BKN016 BKN036 80.6 78.8 94% 88 0 0.0
30 04:00 SE 12 0.00 Showers in Vicinity SCT018 SCT036 82.4 78.8 89% 92 0 0.0
30 03:00 S 13 0.00 Partly Cloudy BKN018 SCT036 82.4 78.8 89% 92 0 0.0
30 02:00 S 10 0.00 Mostly Cloudy BKN018 82.4 78.8 89% 92 0 0.0
30 01:00 S 7 0.00 Mostly Cloudy FEW018 BKN036 82.4 78.8 89% 92 0 0.0
30 00:00 SE 7 0.00 Mostly Cloudy FEW018 BKN036 82.4 78.8 89% 92 0 0.0
29 23:00 S 8 0.00 Mostly Cloudy FEW012CB BKN036 82.4 78.8 89% 92 0 0.0
29 22:00 S 14 0.00 Showers in Vicinity FEW012CB SCT038 82.4 78.8 89% 92 0 0.0
29 21:00 SE 16 0.00 Showers in Vicinity SCT018 BKN036 82.4 78.8 89% 92 0 0.0
29 20:00 E 10 0.00 Showers in Vicinity SCT018 SCT038 82.4 78.8 89% 92 0 0.0
29 19:00 E 10 0.00 Showers in Vicinity SCT018TCU BKN036 82.4 78.8 89% 92 0 0.0
29 18:00 SE 9 0.00 Showers in Vicinity SCT018TCU 84.2 78.8 84% 96 0 0.0
29 17:00 SE 8 0.00 Partly Cloudy SCT018 84.2 78.8 84% 96 0 0.0
29 16:00 E 10 0.00 Partly Cloudy SCT018 86 78.8 79% 99 0 0.0
29 15:00 E 10 0.00 Partly Cloudy SCT018 86 80.6 84% 102 0 0.0
29 14:00 E 13 0.00 Partly Cloudy SCT018 86 80.6 84% 102 0 0.0
29 13:00 E 10 0.00 Partly Cloudy SCT018 86 78.8 79% 99 0 0.0
29 12:00 E 15 0.00 Partly Cloudy SCT018 86 80.6 84% 102 0 0.0
29 11:00 E 15 0.00 Partly Cloudy SCT018 86 80.6 84% 102 0 0.0
29 10:00 E 15 0.00 Partly Cloudy SCT018 86 78.8 79% 99 0 0.0
29 09:00 E 17 0.00 Partly Cloudy SCT018 84.2 78.8 84% 96 0 0.0
29 08:00 E 16 0.00 Partly Cloudy SCT018 84.2 78.8 84% 96 0 0.0
29 07:00 E 14 0.00 Partly Cloudy SCT016 82.4 78.8 89% 92 0 0.0
29 06:00 E 13 0.00 Partly Cloudy SCT016 80.6 77 89% 87 0 0.0
29 05:00 E 12 0.00 Mostly Cloudy FEW016 BKN036 80.6 77 89% 87 0 0.0
29 04:00 E 13 0.00 Light Showers Rain Showers in Vicinity SCT016 BKN036 80.6 77 89% 87 0 0.0
29 03:00 E 12 0.00 Light Showers Rain Showers in Vicinity Showers Rain FEW016 BKN036 82.4 77 84% 91 0 0.0
29 02:00 NE 13 0.00 Light Showers Rain Showers in Vicinity Showers Rain FEW016 BKN036 BKN015 82.4 77 84% 91 0 0.0
29 01:00 E 15 0.00 Light Showers Rain Showers in Vicinity SCT016 82.4 77 84% 91 0 0.0
29 00:00 NE 10 0.00 Showers in Vicinity FEW016 BKN036 82.4 77 84% 91 0 0.0
28 23:00 E 15 0.00 A Few Clouds FEW018 82.4 77 84% 91 0 0.0
28 22:00 E 21 0.00 Partly Cloudy and Breezy SCT018 82.4 77 84% 91 0 0.0
28 21:00 E 22 0.00 A Few Clouds and Breezy FEW020 82.4 77 84% 91 0 0.0
28 20:00 E 18 0.00 Showers in Vicinity SCT016 82.4 75.2 79% 89 0 0.0
28 19:00 E 15 0.00 Partly Cloudy SCT018 82.4 77 84% 91 0 0.0
28 18:00 E 16 0.00 Showers in Vicinity BKN016 82.4 77 84% 91 0 0.0
28 17:00 E 15 0.00 Showers in Vicinity BKN016 84.2 78.8 84% 96 0 0.0
28 16:00 SE 14 0.00 Showers in Vicinity BKN014 82.4 78.8 89% 92 0 0.0
28 15:00 E 13 0.00 Mostly Cloudy BKN014 84.2 80.6 89% 98 0 0.0
28 14:00 SE 15 0.00 Showers in Vicinity SCT012 BKN036 80.6 78.8 94% 88 0 0.0
28 13:00 SE 20 0.00 Light Showers Rain SCT012 BKN036 84.2 80.6 89% 98 0 0.0
28 12:00 E 20 0.00 Showers in Vicinity FEW010CB SCT012 BKN036 80.6 78.8 94% 88 0 0.0
28 11:00 E 22 0.00 Showers in Vicinity and Breezy FEW010CB SCT012 82.4 78.8 89% 92 0 0.0
28 10:00 E 22 0.00 Showers in Vicinity and Breezy FEW010CB SCT012 84.2 80.6 89% 98 0 0.0
28 09:00 E 26 0.00 Showers Rain Showers in Vicinity and Windy FEW010CB BKN012 BKN036 84.2 80.6 89% 98 0 0.0
28 08:00 E 20 0.00 Light Showers Rain Showers in Vicinity SCT010CB BKN012 80.6 78.8 94% 88 0 0.0
28 07:00 E 16 0.00 Light Showers Rain Showers in Vicinity FEW012TCU SCT014 BKN036 80.6 78.8 94% 88 0 0.0
28 06:00 E 12 0.00 Showers in Vicinity FEW010CB SCT012 78.8 77 94% 83 0 0.0
28 05:00 E 13 0.00 Light Showers Rain Showers in Vicinity BKN016 80.6 77 89% 87 0 0.0
28 04:00 E 15 0.00 Light Showers Rain Showers in Vicinity BKN016 SCT038 80.6 75.2 84% 86 0 0.0
28 03:00 E 13 0.00 Showers in Vicinity SCT016 82.4 77 84% 91 0 0.0
28 02:00 E 15 0.00 Partly Cloudy SCT018 80.6 77 89% 87 0 0.0
28 01:00 E 16 0.00 Partly Cloudy SCT018 82.4 77 84% 91 0 0.0
Date Time (ast) Wind (mph) Vis. (mi.) Weather Sky Cond. Air Dwpt Max. Min. Relative Humidity Wind Chill (°F) Heat Index (°F) altimeter (in) sea level (mb) 1 hr 3 hr 6 hr
6 hour
Temperature (ºF) Pressure Precipitation (in)